CYXT

Terrace Airport

Terrace, , Canada
METAR CYXT 210900Z 16003KT 8SM -RA FEW008 SCT017 BKN064 04/03 A2974 RMK SF1SC3SC3 SLP080
Observed Flight Rules
Apr-21 @ 09:00 UTC (31 minutes ago) Visual Flight Rules
Wind Visibility Clouds Conditions
160° at 3 knots 8 miles
  • Few at 800' AGL
  • Scattered at 1,700' AGL
  • Broken at 6,400' AGL
  • Light Rain
Temperatures Readings
Current 4°C / 39°F
Dewpoint 3°C / 37°F
Humidity 93%
Altimeter 29.74" Hg
Pressure 1008 hPa
Elevation 217
METAR CYXT 210900Z 16003KT 8SM -RA FEW008 SCT017 BKN064 04/03 A2974 RMK SF1SC3SC3 SLP080
Observed Flight Rules
Apr-21 @ 09:00 UTC
(31 minutes ago)
VFR
Wind Visibility
160° at 3 knots 8 miles
Clouds
  • Few at 800' AGL
  • Scattered at 1,700' AGL
  • Broken at 6,400' AGL
Conditions
  • Light Rain
Temperature Dewpoint
4°C / 39°F 3°C / 37°F
Humidity Altimeter Pressure
93% 29.74" Hg 1008 hPa